Scenic, Washington
Current Conditions -  °F | °C
As of 1:53 PM on Monday 26 Jan 2015 (Local Time) from KRNT Reporting Station
Clear Clear  
Wind Chill: 62°   Ceiling: Unl
Heat Index: 62°   Visibility: 10mi
Dew Point: 46°   Wind: 3mph
Humidity: 56%   Direction: NA
Pressure: 29.92"   Gusts: NA
Location:  47.6494°N, 121.356°W
Report Text: KRNT 262153Z VRB03KT 10SM CLR 17/08 A2992 RMK AO2 SLP135 T01670078
Loading
Personal Weather Stations






























Interactive Weather Map New forecast layout! Learn more

10-Day Weather Forecast

Advertisements
Track Severe Weather on mobile